sensor_id;sensor_type;location;lat;lon;timestamp;P1;durP1;ratioP1;P2;durP2;ratioP2
20283;SDS011;10301;50.832;4.080;2022-12-20T00:00:16;6.65;;;2.58;;
20283;SDS011;10301;50.832;4.080;2022-12-20T00:02:42;8.77;;;3.10;;
20283;SDS011;10301;50.832;4.080;2022-12-20T00:05:07;9.65;;;3.25;;
20283;SDS011;10301;50.832;4.080;2022-12-20T00:07:33;7.15;;;3.00;;
20283;SDS011;10301;50.832;4.080;2022-12-20T00:09:59;8.10;;;3.30;;
20283;SDS011;10301;50.832;4.080;2022-12-20T00:12:24;5.95;;;2.60;;
20283;SDS011;10301;50.832;4.080;2022-12-20T00:14:50;7.38;;;3.03;;
20283;SDS011;10301;50.832;4.080;2022-12-20T00:17:15;6.55;;;2.95;;
20283;SDS011;10301;50.832;4.080;2022-12-20T00:19:43;6.00;;;3.00;;
20283;SDS011;10301;50.832;4.080;2022-12-20T00:22:09;6.57;;;2.88;;
20283;SDS011;10301;50.832;4.080;2022-12-20T00:24:35;7.05;;;2.60;;
20283;SDS011;10301;50.832;4.080;2022-12-20T00:27:00;7.93;;;3.20;;
20283;SDS011;10301;50.832;4.080;2022-12-20T00:29:26;6.57;;;3.30;;
20283;SDS011;10301;50.832;4.080;2022-12-20T00:31:52;6.60;;;3.17;;
20283;SDS011;10301;50.832;4.080;2022-12-20T00:34:17;7.80;;;3.37;;
20283;SDS011;10301;50.832;4.080;2022-12-20T00:36:43;8.63;;;3.20;;
20283;SDS011;10301;50.832;4.080;2022-12-20T00:39:09;8.00;;;3.10;;
20283;SDS011;10301;50.832;4.080;2022-12-20T00:41:35;6.82;;;2.97;;
20283;SDS011;10301;50.832;4.080;2022-12-20T00:44:01;6.60;;;3.38;;
20283;SDS011;10301;50.832;4.080;2022-12-20T00:46:28;8.65;;;3.50;;
20283;SDS011;10301;50.832;4.080;2022-12-20T00:48:55;7.10;;;3.00;;
20283;SDS011;10301;50.832;4.080;2022-12-20T00:51:23;6.83;;;3.37;;
20283;SDS011;10301;50.832;4.080;2022-12-20T00:53:51;7.32;;;2.92;;
20283;SDS011;10301;50.832;4.080;2022-12-20T00:56:17;7.32;;;3.08;;
20283;SDS011;10301;50.832;4.080;2022-12-20T00:58:43;5.60;;;3.10;;
20283;SDS011;10301;50.832;4.080;2022-12-20T01:01:23;7.32;;;3.15;;
20283;SDS011;10301;50.832;4.080;2022-12-20T01:03:51;6.22;;;3.03;;
20283;SDS011;10301;50.832;4.080;2022-12-20T01:06:17;6.07;;;2.97;;
20283;SDS011;10301;50.832;4.080;2022-12-20T01:08:44;7.57;;;3.23;;
20283;SDS011;10301;50.832;4.080;2022-12-20T01:13:37;6.40;;;2.90;;
20283;SDS011;10301;50.832;4.080;2022-12-20T01:16:06;6.28;;;2.70;;
20283;SDS011;10301;50.832;4.080;2022-12-20T01:18:36;6.78;;;2.58;;
20283;SDS011;10301;50.832;4.080;2022-12-20T01:21:06;5.57;;;2.83;;
20283;SDS011;10301;50.832;4.080;2022-12-20T01:23:34;6.45;;;2.90;;
20283;SDS011;10301;50.832;4.080;2022-12-20T01:26:00;6.25;;;2.80;;
20283;SDS011;10301;50.832;4.080;2022-12-20T01:28:33;9.83;;;3.20;;
20283;SDS011;10301;50.832;4.080;2022-12-20T01:31:00;6.37;;;3.47;;
20283;SDS011;10301;50.832;4.080;2022-12-20T01:33:26;4.97;;;2.90;;
20283;SDS011;10301;50.832;4.080;2022-12-20T01:35:55;7.22;;;3.22;;
20283;SDS011;10301;50.832;4.080;2022-12-20T01:38:22;7.63;;;3.17;;
20283;SDS011;10301;50.832;4.080;2022-12-20T01:40:48;7.45;;;3.25;;
20283;SDS011;10301;50.832;4.080;2022-12-20T01:43:14;7.77;;;3.00;;
20283;SDS011;10301;50.832;4.080;2022-12-20T01:45:42;6.30;;;3.10;;
20283;SDS011;10301;50.832;4.080;2022-12-20T01:48:08;7.78;;;3.20;;
20283;SDS011;10301;50.832;4.080;2022-12-20T01:50:35;8.00;;;3.35;;
20283;SDS011;10301;50.832;4.080;2022-12-20T01:53:01;6.93;;;3.10;;
20283;SDS011;10301;50.832;4.080;2022-12-20T01:55:29;7.70;;;3.45;;
20283;SDS011;10301;50.832;4.080;2022-12-20T01:58:01;7.00;;;3.30;;
20283;SDS011;10301;50.832;4.080;2022-12-20T02:00:30;6.47;;;3.05;;
20283;SDS011;10301;50.832;4.080;2022-12-20T02:02:57;8.23;;;3.05;;
20283;SDS011;10301;50.832;4.080;2022-12-20T02:05:25;6.32;;;3.17;;
20283;SDS011;10301;50.832;4.080;2022-12-20T02:07:51;6.88;;;3.50;;
20283;SDS011;10301;50.832;4.080;2022-12-20T02:10:21;7.90;;;3.33;;
20283;SDS011;10301;50.832;4.080;2022-12-20T02:12:51;8.35;;;3.28;;
20283;SDS011;10301;50.832;4.080;2022-12-20T02:18:01;6.45;;;2.70;;
20283;SDS011;10301;50.832;4.080;2022-12-20T02:29:00;6.78;;;2.92;;
20283;SDS011;10301;50.832;4.080;2022-12-20T02:31:45;6.68;;;3.05;;
20283;SDS011;10301;50.832;4.080;2022-12-20T02:34:16;6.68;;;2.45;;
20283;SDS011;10301;50.832;4.080;2022-12-20T02:36:44;6.63;;;2.50;;
20283;SDS011;10301;50.832;4.080;2022-12-20T02:39:11;7.50;;;2.60;;
20283;SDS011;10301;50.832;4.080;2022-12-20T02:41:43;7.13;;;2.88;;
20283;SDS011;10301;50.832;4.080;2022-12-20T02:44:17;5.55;;;2.83;;
20283;SDS011;10301;50.832;4.080;2022-12-20T02:47:05;6.38;;;2.80;;
20283;SDS011;10301;50.832;4.080;2022-12-20T02:49:34;6.47;;;3.10;;
20283;SDS011;10301;50.832;4.080;2022-12-20T02:52:05;6.90;;;2.83;;
20283;SDS011;10301;50.832;4.080;2022-12-20T02:54:32;6.28;;;3.00;;
20283;SDS011;10301;50.832;4.080;2022-12-20T02:57:00;5.30;;;2.60;;
20283;SDS011;10301;50.832;4.080;2022-12-20T02:59:37;6.63;;;3.13;;
20283;SDS011;10301;50.832;4.080;2022-12-20T03:02:14;8.60;;;3.05;;
20283;SDS011;10301;50.832;4.080;2022-12-20T03:04:41;5.63;;;2.80;;
20283;SDS011;10301;50.832;4.080;2022-12-20T03:07:09;6.57;;;2.95;;
20283;SDS011;10301;50.832;4.080;2022-12-20T03:09:38;7.18;;;2.90;;
20283;SDS011;10301;50.832;4.080;2022-12-20T03:12:05;5.05;;;2.72;;
20283;SDS011;10301;50.832;4.080;2022-12-20T03:14:32;6.20;;;2.88;;
20283;SDS011;10301;50.832;4.080;2022-12-20T03:16:58;6.65;;;3.00;;
20283;SDS011;10301;50.832;4.080;2022-12-20T03:19:23;6.57;;;3.00;;
20283;SDS011;10301;50.832;4.080;2022-12-20T03:21:49;8.35;;;3.33;;
20283;SDS011;10301;50.832;4.080;2022-12-20T03:24:15;6.13;;;2.92;;
20283;SDS011;10301;50.832;4.080;2022-12-20T03:26:41;5.68;;;3.05;;
20283;SDS011;10301;50.832;4.080;2022-12-20T03:29:07;6.93;;;2.60;;
20283;SDS011;10301;50.832;4.080;2022-12-20T03:31:34;7.38;;;3.13;;
20283;SDS011;10301;50.832;4.080;2022-12-20T03:34:00;7.07;;;2.70;;
20283;SDS011;10301;50.832;4.080;2022-12-20T03:36:25;5.93;;;3.10;;
20283;SDS011;10301;50.832;4.080;2022-12-20T03:38:51;5.00;;;2.83;;
20283;SDS011;10301;50.832;4.080;2022-12-20T03:41:18;10.15;;;2.70;;
20283;SDS011;10301;50.832;4.080;2022-12-20T03:43:46;6.50;;;2.88;;
20283;SDS011;10301;50.832;4.080;2022-12-20T03:46:12;7.50;;;3.22;;
20283;SDS011;10301;50.832;4.080;2022-12-20T03:48:37;6.63;;;2.80;;
20283;SDS011;10301;50.832;4.080;2022-12-20T03:51:03;9.15;;;2.90;;
20283;SDS011;10301;50.832;4.080;2022-12-20T03:53:29;6.70;;;2.60;;
20283;SDS011;10301;50.832;4.080;2022-12-20T03:55:54;8.15;;;2.85;;
20283;SDS011;10301;50.832;4.080;2022-12-20T03:58:20;7.05;;;3.40;;
20283;SDS011;10301;50.832;4.080;2022-12-20T04:00:46;6.25;;;2.95;;
20283;SDS011;10301;50.832;4.080;2022-12-20T04:03:12;7.88;;;2.60;;
20283;SDS011;10301;50.832;4.080;2022-12-20T04:05:37;8.52;;;2.90;;
20283;SDS011;10301;50.832;4.080;2022-12-20T04:08:03;7.15;;;2.70;;
20283;SDS011;10301;50.832;4.080;2022-12-20T04:10:29;4.88;;;2.72;;
20283;SDS011;10301;50.832;4.080;2022-12-20T04:12:54;8.20;;;2.90;;
20283;SDS011;10301;50.832;4.080;2022-12-20T04:15:20;8.20;;;2.83;;
20283;SDS011;10301;50.832;4.080;2022-12-20T04:17:46;6.30;;;2.63;;
20283;SDS011;10301;50.832;4.080;2022-12-20T04:20:15;4.95;;;2.55;;
20283;SDS011;10301;50.832;4.080;2022-12-20T04:22:48;6.35;;;2.50;;
20283;SDS011;10301;50.832;4.080;2022-12-20T04:25:16;7.93;;;2.47;;
20283;SDS011;10301;50.832;4.080;2022-12-20T04:27:43;5.28;;;2.47;;
20283;SDS011;10301;50.832;4.080;2022-12-20T04:30:09;5.57;;;2.45;;
20283;SDS011;10301;50.832;4.080;2022-12-20T04:32:36;4.82;;;2.58;;
20283;SDS011;10301;50.832;4.080;2022-12-20T04:35:02;5.05;;;2.13;;
20283;SDS011;10301;50.832;4.080;2022-12-20T04:37:29;5.07;;;2.63;;
20283;SDS011;10301;50.832;4.080;2022-12-20T04:39:55;7.10;;;2.47;;
20283;SDS011;10301;50.832;4.080;2022-12-20T04:42:22;6.30;;;2.25;;
20283;SDS011;10301;50.832;4.080;2022-12-20T04:44:48;5.93;;;2.60;;
20283;SDS011;10301;50.832;4.080;2022-12-20T04:47:14;6.05;;;2.78;;
20283;SDS011;10301;50.832;4.080;2022-12-20T04:49:40;5.93;;;2.60;;
20283;SDS011;10301;50.832;4.080;2022-12-20T04:52:05;5.88;;;2.47;;
20283;SDS011;10301;50.832;4.080;2022-12-20T04:54:49;7.38;;;2.33;;
20283;SDS011;10301;50.832;4.080;2022-12-20T04:57:15;6.38;;;2.60;;
20283;SDS011;10301;50.832;4.080;2022-12-20T04:59:40;9.55;;;2.42;;
20283;SDS011;10301;50.832;4.080;2022-12-20T05:02:06;4.40;;;2.20;;
20283;SDS011;10301;50.832;4.080;2022-12-20T05:04:32;6.90;;;2.42;;
20283;SDS011;10301;50.832;4.080;2022-12-20T05:06:57;6.07;;;2.13;;
20283;SDS011;10301;50.832;4.080;2022-12-20T05:09:23;5.32;;;1.92;;
20283;SDS011;10301;50.832;4.080;2022-12-20T05:11:49;9.35;;;3.15;;
20283;SDS011;10301;50.832;4.080;2022-12-20T05:14:14;8.10;;;2.30;;
20283;SDS011;10301;50.832;4.080;2022-12-20T05:16:40;5.60;;;2.25;;
20283;SDS011;10301;50.832;4.080;2022-12-20T05:19:06;7.72;;;2.80;;
20283;SDS011;10301;50.832;4.080;2022-12-20T05:21:31;4.32;;;2.08;;
20283;SDS011;10301;50.832;4.080;2022-12-20T05:24:15;6.88;;;2.10;;
20283;SDS011;10301;50.832;4.080;2022-12-20T05:27:00;7.00;;;2.33;;
20283;SDS011;10301;50.832;4.080;2022-12-20T05:29:26;5.13;;;2.22;;
20283;SDS011;10301;50.832;4.080;2022-12-20T05:31:51;8.23;;;2.20;;
20283;SDS011;10301;50.832;4.080;2022-12-20T05:34:17;4.95;;;1.60;;
20283;SDS011;10301;50.832;4.080;2022-12-20T05:36:43;6.90;;;2.20;;
20283;SDS011;10301;50.832;4.080;2022-12-20T05:39:09;7.68;;;2.00;;
20283;SDS011;10301;50.832;4.080;2022-12-20T05:41:36;4.50;;;1.90;;
20283;SDS011;10301;50.832;4.080;2022-12-20T05:44:02;5.93;;;2.13;;
20283;SDS011;10301;50.832;4.080;2022-12-20T05:46:28;7.60;;;1.58;;
20283;SDS011;10301;50.832;4.080;2022-12-20T05:48:53;4.88;;;2.08;;
20283;SDS011;10301;50.832;4.080;2022-12-20T05:51:19;5.75;;;1.92;;
20283;SDS011;10301;50.832;4.080;2022-12-20T05:53:45;6.25;;;2.10;;
20283;SDS011;10301;50.832;4.080;2022-12-20T05:56:11;6.60;;;1.90;;
20283;SDS011;10301;50.832;4.080;2022-12-20T05:58:36;5.65;;;2.00;;
20283;SDS011;10301;50.832;4.080;2022-12-20T06:01:03;6.72;;;2.25;;
20283;SDS011;10301;50.832;4.080;2022-12-20T06:03:30;6.93;;;2.10;;
20283;SDS011;10301;50.832;4.080;2022-12-20T06:05:56;6.10;;;2.25;;
20283;SDS011;10301;50.832;4.080;2022-12-20T06:08:21;5.65;;;2.85;;
20283;SDS011;10301;50.832;4.080;2022-12-20T06:10:48;6.25;;;2.20;;
20283;SDS011;10301;50.832;4.080;2022-12-20T06:13:14;4.90;;;2.08;;
20283;SDS011;10301;50.832;4.080;2022-12-20T06:15:40;6.05;;;2.00;;
20283;SDS011;10301;50.832;4.080;2022-12-20T06:18:06;6.85;;;2.15;;
20283;SDS011;10301;50.832;4.080;2022-12-20T06:20:35;6.57;;;2.20;;
20283;SDS011;10301;50.832;4.080;2022-12-20T06:23:01;5.75;;;2.05;;
20283;SDS011;10301;50.832;4.080;2022-12-20T06:25:27;5.15;;;2.25;;
20283;SDS011;10301;50.832;4.080;2022-12-20T06:27:53;8.32;;;2.10;;
20283;SDS011;10301;50.832;4.080;2022-12-20T06:30:19;4.82;;;1.88;;
20283;SDS011;10301;50.832;4.080;2022-12-20T06:32:45;5.60;;;1.92;;
20283;SDS011;10301;50.832;4.080;2022-12-20T06:35:11;5.10;;;1.90;;
20283;SDS011;10301;50.832;4.080;2022-12-20T06:37:37;5.53;;;1.80;;
20283;SDS011;10301;50.832;4.080;2022-12-20T06:40:05;5.78;;;1.48;;
20283;SDS011;10301;50.832;4.080;2022-12-20T06:42:34;7.70;;;2.00;;
20283;SDS011;10301;50.832;4.080;2022-12-20T06:45:00;4.72;;;1.50;;
20283;SDS011;10301;50.832;4.080;2022-12-20T06:47:26;3.05;;;1.50;;
20283;SDS011;10301;50.832;4.080;2022-12-20T06:49:51;4.85;;;2.53;;
20283;SDS011;10301;50.832;4.080;2022-12-20T06:52:17;6.40;;;2.08;;
20283;SDS011;10301;50.832;4.080;2022-12-20T06:54:43;5.80;;;1.80;;
20283;SDS011;10301;50.832;4.080;2022-12-20T06:57:08;8.20;;;1.90;;
20283;SDS011;10301;50.832;4.080;2022-12-20T06:59:34;4.65;;;1.70;;
20283;SDS011;10301;50.832;4.080;2022-12-20T07:02:00;4.95;;;2.08;;
20283;SDS011;10301;50.832;4.080;2022-12-20T07:04:25;6.75;;;1.85;;
20283;SDS011;10301;50.832;4.080;2022-12-20T07:06:51;6.63;;;2.20;;
20283;SDS011;10301;50.832;4.080;2022-12-20T07:09:17;6.45;;;2.08;;
20283;SDS011;10301;50.832;4.080;2022-12-20T07:11:43;8.68;;;2.53;;
20283;SDS011;10301;50.832;4.080;2022-12-20T07:14:08;8.85;;;2.10;;
20283;SDS011;10301;50.832;4.080;2022-12-20T07:16:35;7.47;;;1.73;;
20283;SDS011;10301;50.832;4.080;2022-12-20T07:19:01;9.40;;;2.42;;
20283;SDS011;10301;50.832;4.080;2022-12-20T07:21:26;7.70;;;2.10;;
20283;SDS011;10301;50.832;4.080;2022-12-20T07:23:53;9.52;;;1.83;;
20283;SDS011;10301;50.832;4.080;2022-12-20T07:26:19;6.97;;;2.27;;
20283;SDS011;10301;50.832;4.080;2022-12-20T07:28:45;6.53;;;2.25;;
20283;SDS011;10301;50.832;4.080;2022-12-20T07:31:11;11.25;;;2.88;;
20283;SDS011;10301;50.832;4.080;2022-12-20T07:33:36;9.52;;;2.45;;
20283;SDS011;10301;50.832;4.080;2022-12-20T07:36:03;7.20;;;2.33;;
20283;SDS011;10301;50.832;4.080;2022-12-20T07:38:32;11.70;;;2.47;;
20283;SDS011;10301;50.832;4.080;2022-12-20T07:40:59;7.38;;;2.15;;
20283;SDS011;10301;50.832;4.080;2022-12-20T07:43:30;12.23;;;2.50;;
20283;SDS011;10301;50.832;4.080;2022-12-20T07:45:56;11.10;;;3.22;;
20283;SDS011;10301;50.832;4.080;2022-12-20T07:48:22;6.70;;;2.53;;
20283;SDS011;10301;50.832;4.080;2022-12-20T07:50:50;10.57;;;3.10;;
20283;SDS011;10301;50.832;4.080;2022-12-20T07:53:18;13.97;;;2.73;;
20283;SDS011;10301;50.832;4.080;2022-12-20T07:55:45;8.53;;;2.37;;
20283;SDS011;10301;50.832;4.080;2022-12-20T07:58:12;5.60;;;2.30;;
20283;SDS011;10301;50.832;4.080;2022-12-20T08:00:41;7.03;;;2.30;;
20283;SDS011;10301;50.832;4.080;2022-12-20T08:03:10;10.33;;;2.63;;
20283;SDS011;10301;50.832;4.080;2022-12-20T08:05:40;5.20;;;2.57;;
20283;SDS011;10301;50.832;4.080;2022-12-20T08:08:09;8.70;;;2.93;;
20283;SDS011;10301;50.832;4.080;2022-12-20T08:10:36;6.13;;;2.70;;
20283;SDS011;10301;50.832;4.080;2022-12-20T08:13:02;6.90;;;2.67;;
20283;SDS011;10301;50.832;4.080;2022-12-20T08:15:29;8.23;;;2.57;;
20283;SDS011;10301;50.832;4.080;2022-12-20T08:17:54;6.43;;;2.33;;
20283;SDS011;10301;50.832;4.080;2022-12-20T08:20:20;9.77;;;2.27;;
20283;SDS011;10301;50.832;4.080;2022-12-20T08:22:46;9.30;;;2.43;;
20283;SDS011;10301;50.832;4.080;2022-12-20T08:25:12;10.27;;;2.63;;
20283;SDS011;10301;50.832;4.080;2022-12-20T08:27:37;7.68;;;2.17;;
20283;SDS011;10301;50.832;4.080;2022-12-20T08:30:03;9.73;;;3.30;;
20283;SDS011;10301;50.832;4.080;2022-12-20T08:32:29;13.03;;;4.70;;
20283;SDS011;10301;50.832;4.080;2022-12-20T08:34:55;10.03;;;3.00;;
20283;SDS011;10301;50.832;4.080;2022-12-20T08:37:21;6.80;;;2.40;;
20283;SDS011;10301;50.832;4.080;2022-12-20T08:39:46;9.73;;;2.67;;
20283;SDS011;10301;50.832;4.080;2022-12-20T08:42:12;7.53;;;3.20;;
20283;SDS011;10301;50.832;4.080;2022-12-20T08:44:38;10.40;;;3.23;;
20283;SDS011;10301;50.832;4.080;2022-12-20T08:47:03;5.72;;;2.60;;
20283;SDS011;10301;50.832;4.080;2022-12-20T08:49:29;4.82;;;2.08;;
20283;SDS011;10301;50.832;4.080;2022-12-20T08:51:54;7.88;;;2.63;;
20283;SDS011;10301;50.832;4.080;2022-12-20T08:54:20;9.27;;;2.57;;
20283;SDS011;10301;50.832;4.080;2022-12-20T08:56:46;9.37;;;3.37;;
20283;SDS011;10301;50.832;4.080;2022-12-20T08:59:12;6.70;;;3.58;;
20283;SDS011;10301;50.832;4.080;2022-12-20T09:01:38;12.17;;;3.03;;
20283;SDS011;10301;50.832;4.080;2022-12-20T09:04:03;6.87;;;3.23;;
20283;SDS011;10301;50.832;4.080;2022-12-20T09:06:29;8.43;;;2.70;;
20283;SDS011;10301;50.832;4.080;2022-12-20T09:08:55;9.67;;;3.20;;
20283;SDS011;10301;50.832;4.080;2022-12-20T09:11:21;6.82;;;2.58;;
20283;SDS011;10301;50.832;4.080;2022-12-20T09:13:49;6.65;;;2.80;;
20283;SDS011;10301;50.832;4.080;2022-12-20T09:16:18;7.23;;;3.03;;
20283;SDS011;10301;50.832;4.080;2022-12-20T09:18:52;8.60;;;3.95;;
20283;SDS011;10301;50.832;4.080;2022-12-20T09:21:20;9.93;;;4.50;;
20283;SDS011;10301;50.832;4.080;2022-12-20T09:23:46;9.20;;;4.00;;
20283;SDS011;10301;50.832;4.080;2022-12-20T09:26:14;7.03;;;3.15;;
20283;SDS011;10301;50.832;4.080;2022-12-20T09:28:42;7.80;;;2.80;;
20283;SDS011;10301;50.832;4.080;2022-12-20T09:31:26;8.52;;;2.83;;
20283;SDS011;10301;50.832;4.080;2022-12-20T09:33:53;5.97;;;2.70;;
20283;SDS011;10301;50.832;4.080;2022-12-20T09:36:21;7.10;;;2.73;;
20283;SDS011;10301;50.832;4.080;2022-12-20T09:38:47;7.30;;;3.13;;
20283;SDS011;10301;50.832;4.080;2022-12-20T09:46:44;9.33;;;3.10;;
20283;SDS011;10301;50.832;4.080;2022-12-20T09:49:16;8.60;;;3.00;;
20283;SDS011;10301;50.832;4.080;2022-12-20T09:51:51;6.10;;;2.80;;
20283;SDS011;10301;50.832;4.080;2022-12-20T10:00:10;7.40;;;3.07;;
20283;SDS011;10301;50.832;4.080;2022-12-20T10:02:38;5.78;;;2.80;;
20283;SDS011;10301;50.832;4.080;2022-12-20T10:05:04;5.97;;;3.22;;
20283;SDS011;10301;50.832;4.080;2022-12-20T10:07:38;6.27;;;2.90;;
20283;SDS011;10301;50.832;4.080;2022-12-20T10:15:39;10.27;;;3.25;;
20283;SDS011;10301;50.832;4.080;2022-12-20T10:21:06;8.93;;;3.30;;
20283;SDS011;10301;50.832;4.080;2022-12-20T10:23:45;7.68;;;3.10;;
20283;SDS011;10301;50.832;4.080;2022-12-20T10:26:26;8.50;;;2.85;;
20283;SDS011;10301;50.832;4.080;2022-12-20T10:28:53;6.45;;;3.10;;
20283;SDS011;10301;50.832;4.080;2022-12-20T10:31:19;8.68;;;3.38;;
20283;SDS011;10301;50.832;4.080;2022-12-20T10:33:45;10.82;;;3.13;;
20283;SDS011;10301;50.832;4.080;2022-12-20T10:36:24;8.77;;;2.67;;
20283;SDS011;10301;50.832;4.080;2022-12-20T10:38:55;7.55;;;3.13;;
20283;SDS011;10301;50.832;4.080;2022-12-20T10:41:23;7.10;;;2.60;;
20283;SDS011;10301;50.832;4.080;2022-12-20T10:43:59;8.65;;;2.90;;
20283;SDS011;10301;50.832;4.080;2022-12-20T10:46:39;6.85;;;2.88;;
20283;SDS011;10301;50.832;4.080;2022-12-20T10:51:56;8.25;;;2.90;;
20283;SDS011;10301;50.832;4.080;2022-12-20T10:56:54;10.88;;;3.30;;
20283;SDS011;10301;50.832;4.080;2022-12-20T10:59:32;8.32;;;3.20;;
20283;SDS011;10301;50.832;4.080;2022-12-20T11:02:07;6.30;;;2.95;;
20283;SDS011;10301;50.832;4.080;2022-12-20T11:04:56;5.68;;;2.97;;
20283;SDS011;10301;50.832;4.080;2022-12-20T11:07:37;9.25;;;3.35;;
20283;SDS011;10301;50.832;4.080;2022-12-20T11:10:25;7.93;;;3.55;;
20283;SDS011;10301;50.832;4.080;2022-12-20T11:12:56;10.10;;;3.45;;
20283;SDS011;10301;50.832;4.080;2022-12-20T11:15:27;11.25;;;3.60;;
20283;SDS011;10301;50.832;4.080;2022-12-20T11:23:38;8.75;;;3.53;;
20283;SDS011;10301;50.832;4.080;2022-12-20T11:28:55;8.95;;;2.80;;
20283;SDS011;10301;50.832;4.080;2022-12-20T11:31:39;7.53;;;2.92;;
20283;SDS011;10301;50.832;4.080;2022-12-20T11:45:09;6.00;;;3.28;;
20283;SDS011;10301;50.832;4.080;2022-12-20T11:53:35;10.32;;;3.40;;
20283;SDS011;10301;50.832;4.080;2022-12-20T11:56:08;8.13;;;3.65;;
20283;SDS011;10301;50.832;4.080;2022-12-20T11:58:45;7.90;;;3.40;;
20283;SDS011;10301;50.832;4.080;2022-12-20T12:01:32;8.68;;;3.60;;
20283;SDS011;10301;50.832;4.080;2022-12-20T12:06:52;8.93;;;4.05;;
20283;SDS011;10301;50.832;4.080;2022-12-20T12:09:35;7.80;;;3.85;;
20283;SDS011;10301;50.832;4.080;2022-12-20T12:12:11;8.65;;;3.70;;
20283;SDS011;10301;50.832;4.080;2022-12-20T12:14:49;8.60;;;3.70;;
20283;SDS011;10301;50.832;4.080;2022-12-20T12:17:31;8.25;;;3.50;;
20283;SDS011;10301;50.832;4.080;2022-12-20T12:20:02;9.18;;;3.80;;
20283;SDS011;10301;50.832;4.080;2022-12-20T12:22:39;7.70;;;3.80;;
20283;SDS011;10301;50.832;4.080;2022-12-20T12:25:08;9.85;;;4.10;;
20283;SDS011;10301;50.832;4.080;2022-12-20T12:27:40;8.55;;;3.63;;
20283;SDS011;10301;50.832;4.080;2022-12-20T12:30:10;9.13;;;3.80;;
20283;SDS011;10301;50.832;4.080;2022-12-20T12:32:57;9.15;;;4.05;;
20283;SDS011;10301;50.832;4.080;2022-12-20T12:38:28;9.23;;;4.18;;
20283;SDS011;10301;50.832;4.080;2022-12-20T12:43:56;11.30;;;4.80;;
20283;SDS011;10301;50.832;4.080;2022-12-20T12:46:42;10.10;;;4.97;;
20283;SDS011;10301;50.832;4.080;2022-12-20T12:49:09;8.18;;;4.25;;
20283;SDS011;10301;50.832;4.080;2022-12-20T12:51:41;8.13;;;4.93;;
20283;SDS011;10301;50.832;4.080;2022-12-20T12:54:24;10.23;;;4.85;;
20283;SDS011;10301;50.832;4.080;2022-12-20T12:56:53;11.13;;;3.70;;
20283;SDS011;10301;50.832;4.080;2022-12-20T13:04:30;10.85;;;3.85;;
20283;SDS011;10301;50.832;4.080;2022-12-20T13:15:47;10.02;;;4.13;;
20283;SDS011;10301;50.832;4.080;2022-12-20T13:20:20;7.22;;;3.70;;
20283;SDS011;10301;50.832;4.080;2022-12-20T13:25:33;9.80;;;4.53;;
20283;SDS011;10301;50.832;4.080;2022-12-20T13:29:16;12.38;;;4.20;;
20283;SDS011;10301;50.832;4.080;2022-12-20T13:33:40;9.88;;;4.60;;
20283;SDS011;10301;50.832;4.080;2022-12-20T13:41:24;12.18;;;5.03;;
20283;SDS011;10301;50.832;4.080;2022-12-20T13:46:41;7.25;;;4.22;;
20283;SDS011;10301;50.832;4.080;2022-12-20T13:49:24;9.60;;;5.03;;
20283;SDS011;10301;50.832;4.080;2022-12-20T13:54:51;10.40;;;4.85;;
20283;SDS011;10301;50.832;4.080;2022-12-20T13:57:30;11.32;;;6.00;;
20283;SDS011;10301;50.832;4.080;2022-12-20T14:00:04;10.60;;;5.85;;
20283;SDS011;10301;50.832;4.080;2022-12-20T14:02:39;13.10;;;5.32;;
20283;SDS011;10301;50.832;4.080;2022-12-20T14:05:12;7.63;;;4.25;;
20283;SDS011;10301;50.832;4.080;2022-12-20T14:07:38;8.98;;;4.60;;
20283;SDS011;10301;50.832;4.080;2022-12-20T14:10:38;12.57;;;4.70;;
20283;SDS011;10301;50.832;4.080;2022-12-20T14:12:57;10.75;;;4.50;;
20283;SDS011;10301;50.832;4.080;2022-12-20T14:15:25;9.93;;;4.20;;
20283;SDS011;10301;50.832;4.080;2022-12-20T14:17:51;12.93;;;5.53;;
20283;SDS011;10301;50.832;4.080;2022-12-20T14:20:25;15.80;;;5.95;;
20283;SDS011;10301;50.832;4.080;2022-12-20T14:25:40;8.18;;;4.72;;
20283;SDS011;10301;50.832;4.080;2022-12-20T14:31:03;10.95;;;4.95;;
20283;SDS011;10301;50.832;4.080;2022-12-20T14:36:15;10.95;;;5.35;;
20283;SDS011;10301;50.832;4.080;2022-12-20T14:38:44;12.13;;;5.85;;
20283;SDS011;10301;50.832;4.080;2022-12-20T14:43:56;10.07;;;5.55;;
20283;SDS011;10301;50.832;4.080;2022-12-20T14:46:25;10.05;;;5.20;;
20283;SDS011;10301;50.832;4.080;2022-12-20T14:49:05;9.45;;;5.05;;
20283;SDS011;10301;50.832;4.080;2022-12-20T14:52:03;14.75;;;5.35;;
20283;SDS011;10301;50.832;4.080;2022-12-20T14:54:39;11.40;;;6.15;;
20283;SDS011;10301;50.832;4.080;2022-12-20T14:57:19;13.55;;;6.18;;
20283;SDS011;10301;50.832;4.080;2022-12-20T15:03:19;10.57;;;6.63;;
20283;SDS011;10301;50.832;4.080;2022-12-20T15:13:41;12.40;;;6.05;;
20283;SDS011;10301;50.832;4.080;2022-12-20T15:16:14;12.80;;;6.40;;
20283;SDS011;10301;50.832;4.080;2022-12-20T15:18:48;14.65;;;7.28;;
20283;SDS011;10301;50.832;4.080;2022-12-20T15:21:36;11.18;;;5.90;;
20283;SDS011;10301;50.832;4.080;2022-12-20T15:24:17;11.63;;;6.47;;
20283;SDS011;10301;50.832;4.080;2022-12-20T15:26:46;11.00;;;5.72;;
20283;SDS011;10301;50.832;4.080;2022-12-20T15:29:16;12.02;;;6.40;;
20283;SDS011;10301;50.832;4.080;2022-12-20T15:32:14;10.00;;;6.50;;
20283;SDS011;10301;50.832;4.080;2022-12-20T15:34:47;11.25;;;5.18;;
20283;SDS011;10301;50.832;4.080;2022-12-20T15:37:13;10.85;;;5.70;;
20283;SDS011;10301;50.832;4.080;2022-12-20T15:39:40;15.80;;;6.30;;
20283;SDS011;10301;50.832;4.080;2022-12-20T15:42:06;13.23;;;6.50;;
20283;SDS011;10301;50.832;4.080;2022-12-20T15:44:37;9.75;;;5.90;;
20283;SDS011;10301;50.832;4.080;2022-12-20T15:47:02;13.13;;;5.90;;
20283;SDS011;10301;50.832;4.080;2022-12-20T15:49:29;11.80;;;6.95;;
20283;SDS011;10301;50.832;4.080;2022-12-20T15:51:56;11.30;;;6.80;;
20283;SDS011;10301;50.832;4.080;2022-12-20T15:56:57;16.70;;;9.70;;
20283;SDS011;10301;50.832;4.080;2022-12-20T15:59:24;11.55;;;8.35;;
20283;SDS011;10301;50.832;4.080;2022-12-20T16:01:49;12.45;;;6.55;;
20283;SDS011;10301;50.832;4.080;2022-12-20T16:04:16;13.20;;;7.35;;
20283;SDS011;10301;50.832;4.080;2022-12-20T16:06:44;12.95;;;6.38;;
20283;SDS011;10301;50.832;4.080;2022-12-20T16:09:12;13.32;;;6.88;;
20283;SDS011;10301;50.832;4.080;2022-12-20T16:11:38;12.00;;;7.53;;
20283;SDS011;10301;50.832;4.080;2022-12-20T16:14:04;12.13;;;7.50;;
20283;SDS011;10301;50.832;4.080;2022-12-20T16:16:34;11.52;;;6.80;;
20283;SDS011;10301;50.832;4.080;2022-12-20T16:19:00;12.82;;;6.88;;
20283;SDS011;10301;50.832;4.080;2022-12-20T16:21:35;11.05;;;7.03;;
20283;SDS011;10301;50.832;4.080;2022-12-20T16:24:11;13.25;;;7.43;;
20283;SDS011;10301;50.832;4.080;2022-12-20T16:26:38;10.73;;;7.47;;
20283;SDS011;10301;50.832;4.080;2022-12-20T16:29:04;16.27;;;7.75;;
20283;SDS011;10301;50.832;4.080;2022-12-20T16:31:31;10.00;;;6.95;;
20283;SDS011;10301;50.832;4.080;2022-12-20T16:33:58;13.45;;;7.90;;
20283;SDS011;10301;50.832;4.080;2022-12-20T16:36:27;12.80;;;6.90;;
20283;SDS011;10301;50.832;4.080;2022-12-20T16:38:53;12.10;;;7.88;;
20283;SDS011;10301;50.832;4.080;2022-12-20T16:41:21;11.55;;;8.00;;
20283;SDS011;10301;50.832;4.080;2022-12-20T16:43:52;14.23;;;8.75;;
20283;SDS011;10301;50.832;4.080;2022-12-20T16:46:19;11.98;;;7.85;;
20283;SDS011;10301;50.832;4.080;2022-12-20T16:48:47;11.95;;;7.80;;
20283;SDS011;10301;50.832;4.080;2022-12-20T16:53:54;16.83;;;9.32;;
20283;SDS011;10301;50.832;4.080;2022-12-20T16:56:20;13.02;;;8.95;;
20283;SDS011;10301;50.832;4.080;2022-12-20T16:58:46;14.77;;;10.50;;
20283;SDS011;10301;50.832;4.080;2022-12-20T17:01:15;12.48;;;9.10;;
20283;SDS011;10301;50.832;4.080;2022-12-20T17:03:42;15.13;;;9.93;;
20283;SDS011;10301;50.832;4.080;2022-12-20T17:06:12;15.07;;;8.80;;
20283;SDS011;10301;50.832;4.080;2022-12-20T17:08:39;12.82;;;9.05;;